createdAt,value
2018-11-03T00:00:26.974Z,21.82
2018-11-03T00:00:58.592Z,21.82
2018-11-03T00:01:30.205Z,21.81
2018-11-03T00:02:01.822Z,21.81
2018-11-03T00:02:33.433Z,21.79
2018-11-03T00:03:05.044Z,21.79
2018-11-03T00:03:36.644Z,21.78
2018-11-03T00:04:08.254Z,21.78
2018-11-03T00:04:39.896Z,21.77
2018-11-03T00:05:11.508Z,21.77
2018-11-03T00:05:43.108Z,21.76
2018-11-03T00:06:14.690Z,21.76
2018-11-03T00:06:46.302Z,21.75
2018-11-03T00:07:17.894Z,21.75
2018-11-03T00:07:49.496Z,21.75
2018-11-03T00:08:21.105Z,21.74
2018-11-03T00:08:53.048Z,21.73
2018-11-03T00:09:24.671Z,21.73
2018-11-03T00:09:56.311Z,21.72
2018-11-03T00:10:27.925Z,21.72
2018-11-03T00:10:59.562Z,21.72
2018-11-03T00:11:31.164Z,21.72
2018-11-03T00:12:02.781Z,21.72
2018-11-03T00:12:34.711Z,21.72
2018-11-03T00:13:06.472Z,21.73
2018-11-03T00:13:38.068Z,21.73
2018-11-03T00:14:09.660Z,21.73
2018-11-03T00:14:41.293Z,21.74
2018-11-03T00:15:12.895Z,21.73
2018-11-03T00:15:44.487Z,21.72
2018-11-03T00:16:16.082Z,21.71
2018-11-03T00:16:47.683Z,21.70
2018-11-03T00:17:19.280Z,21.70
2018-11-03T00:17:50.888Z,21.69
2018-11-03T00:18:22.483Z,21.71
2018-11-03T00:18:54.090Z,21.72
2018-11-03T00:19:25.688Z,21.73
2018-11-03T00:19:57.328Z,21.75
2018-11-03T00:20:28.938Z,21.77
2018-11-03T00:21:00.553Z,21.78
2018-11-03T00:21:32.170Z,21.80
2018-11-03T00:22:03.772Z,21.83
2018-11-03T00:22:35.375Z,21.85
2018-11-03T00:23:07.013Z,21.86
2018-11-03T00:23:38.622Z,21.87
2018-11-03T00:24:10.234Z,21.89
2018-11-03T00:24:41.876Z,21.90
2018-11-03T00:25:13.470Z,21.89
2018-11-03T00:25:45.076Z,21.90
2018-11-03T00:26:16.688Z,21.89
2018-11-03T00:26:48.291Z,21.89
2018-11-03T00:27:19.910Z,21.89
2018-11-03T00:27:51.522Z,21.89
2018-11-03T00:28:23.132Z,21.90
2018-11-03T00:28:54.752Z,21.90
2018-11-03T00:29:26.344Z,21.72
2018-11-03T00:29:57.990Z,21.89
2018-11-03T00:30:29.606Z,21.83
2018-11-03T00:31:01.195Z,21.91
2018-11-03T00:31:32.788Z,21.92
2018-11-03T00:32:04.382Z,21.92
2018-11-03T00:32:35.987Z,21.92
2018-11-03T00:33:07.622Z,21.93
2018-11-03T00:33:39.225Z,21.95
2018-11-03T00:34:10.825Z,21.96
2018-11-03T00:34:42.486Z,21.96
2018-11-03T00:35:14.091Z,21.98
2018-11-03T00:35:45.702Z,22.00
2018-11-03T00:36:17.315Z,22.02
2018-11-03T00:36:48.908Z,22.01
2018-11-03T00:37:20.504Z,22.05
2018-11-03T00:37:52.143Z,22.08
2018-11-03T00:38:23.731Z,22.09
2018-11-03T00:38:55.347Z,22.08
2018-11-03T00:39:26.940Z,22.11
2018-11-03T00:39:58.589Z,22.12
2018-11-03T00:40:30.216Z,22.14
2018-11-03T00:41:01.830Z,22.14
2018-11-03T00:41:33.432Z,22.14
2018-11-03T00:42:05.043Z,22.16
2018-11-03T00:42:36.711Z,22.20
2018-11-03T00:43:08.270Z,22.23
2018-11-03T00:43:39.880Z,22.24
2018-11-03T00:44:11.525Z,22.24
2018-11-03T00:44:43.137Z,22.24
2018-11-03T00:45:14.764Z,22.23
2018-11-03T00:45:46.374Z,22.23
2018-11-03T00:46:17.981Z,22.23
2018-11-03T00:46:49.586Z,22.23
2018-11-03T00:47:21.208Z,22.24
2018-11-03T00:47:52.822Z,22.24
2018-11-03T00:48:24.446Z,22.25
2018-11-03T00:48:56.041Z,22.24
2018-11-03T00:49:27.636Z,22.25
2018-11-03T00:49:59.292Z,22.25
2018-11-03T00:50:30.902Z,22.25
2018-11-03T00:51:02.502Z,22.25
2018-11-03T00:51:34.110Z,22.24
2018-11-03T00:52:05.708Z,22.24
2018-11-03T00:52:37.300Z,22.24
2018-11-03T00:53:08.906Z,22.24
2018-11-03T00:53:40.519Z,22.25
2018-11-03T00:54:12.137Z,22.05
2018-11-03T00:54:43.726Z,22.26
2018-11-03T00:55:15.348Z,22.26
2018-11-03T00:55:46.959Z,22.26
2018-11-03T00:56:18.564Z,22.26
2018-11-03T00:56:50.178Z,22.26
2018-11-03T00:57:21.794Z,22.26
2018-11-03T00:57:53.410Z,22.26
2018-11-03T00:58:25.012Z,22.26
2018-11-03T00:58:56.629Z,22.26
2018-11-03T00:59:28.228Z,22.25
2018-11-03T00:59:59.881Z,22.25
2018-11-03T01:00:31.490Z,22.25
2018-11-03T01:01:03.108Z,22.24
2018-11-03T01:01:34.700Z,22.24
2018-11-03T01:02:06.302Z,22.24
2018-11-03T01:02:37.910Z,22.23
2018-11-03T01:03:09.504Z,22.23
2018-11-03T01:03:41.316Z,22.22
2018-11-03T01:04:12.939Z,22.22
2018-11-03T01:04:44.518Z,22.21
2018-11-03T01:05:16.153Z,22.20
2018-11-03T01:05:47.762Z,22.20
2018-11-03T01:06:19.371Z,22.23
2018-11-03T01:06:50.971Z,22.24
2018-11-03T01:07:22.559Z,22.23
2018-11-03T01:07:54.159Z,22.23
2018-11-03T01:08:25.764Z,22.21
2018-11-03T01:08:57.365Z,22.21
2018-11-03T01:09:28.964Z,22.20
2018-11-03T01:10:00.579Z,22.20
2018-11-03T01:10:32.184Z,22.20
2018-11-03T01:11:03.810Z,22.18
2018-11-03T01:11:35.390Z,22.17
2018-11-03T01:12:06.998Z,22.16
2018-11-03T01:12:38.666Z,22.14
2018-11-03T01:13:10.277Z,22.12
2018-11-03T01:13:41.877Z,22.09
2018-11-03T01:14:13.472Z,22.07
2018-11-03T01:14:45.079Z,22.04
2018-11-03T01:15:16.693Z,22.04
2018-11-03T01:15:48.292Z,22.04
2018-11-03T01:16:19.879Z,22.06
2018-11-03T01:16:51.484Z,22.06
2018-11-03T01:17:23.097Z,22.07
2018-11-03T01:17:54.698Z,22.08
2018-11-03T01:18:26.310Z,22.08
2018-11-03T01:18:57.893Z,22.07
2018-11-03T01:19:29.474Z,22.08
2018-11-03T01:20:01.096Z,22.07
2018-11-03T01:20:32.718Z,22.06
2018-11-03T01:21:04.326Z,22.05
2018-11-03T01:21:35.906Z,22.05
2018-11-03T01:22:07.500Z,22.04
2018-11-03T01:22:39.098Z,22.03
2018-11-03T01:23:10.708Z,22.02
2018-11-03T01:23:42.395Z,22.01
2018-11-03T01:24:13.954Z,22.00
2018-11-03T01:24:45.561Z,21.99
2018-11-03T01:25:17.204Z,21.99
2018-11-03T01:25:48.805Z,21.98
2018-11-03T01:26:20.396Z,22.01
2018-11-03T01:26:51.984Z,22.02
2018-11-03T01:27:23.584Z,22.01
2018-11-03T01:27:55.181Z,22.01
2018-11-03T01:28:26.789Z,21.99
2018-11-03T01:28:58.401Z,21.79
2018-11-03T01:29:30.023Z,21.98
2018-11-03T01:30:01.648Z,21.95
2018-11-03T01:30:33.264Z,21.94
2018-11-03T01:31:04.894Z,21.93
2018-11-03T01:31:36.497Z,21.92
2018-11-03T01:32:08.110Z,21.91
2018-11-03T01:32:39.799Z,21.90
2018-11-03T01:33:11.358Z,21.88
2018-11-03T01:33:42.967Z,21.87
2018-11-03T01:34:14.546Z,21.83
2018-11-03T01:34:46.130Z,21.84
2018-11-03T01:35:17.736Z,21.83
2018-11-03T01:35:49.371Z,21.82
2018-11-03T01:36:20.973Z,21.81
2018-11-03T01:36:52.587Z,21.79
2018-11-03T01:37:24.195Z,21.77
2018-11-03T01:37:55.784Z,21.76
2018-11-03T01:38:27.374Z,21.76
2018-11-03T01:38:58.964Z,21.75
2018-11-03T01:39:30.559Z,21.75
2018-11-03T01:40:02.161Z,21.73
2018-11-03T01:40:33.785Z,21.72
2018-11-03T01:41:05.395Z,21.71
2018-11-03T01:41:36.988Z,21.70
2018-11-03T01:42:08.607Z,21.59
2018-11-03T01:42:40.204Z,21.70
2018-11-03T01:43:11.800Z,21.69
2018-11-03T01:43:43.409Z,21.69
2018-11-03T01:44:15.008Z,21.67
2018-11-03T01:44:46.608Z,21.70
2018-11-03T01:45:18.201Z,21.71
2018-11-03T01:45:49.832Z,21.71
2018-11-03T01:46:21.417Z,21.74
2018-11-03T01:46:53.029Z,21.75
2018-11-03T01:47:24.610Z,21.76
2018-11-03T01:47:56.214Z,21.76
2018-11-03T01:48:27.826Z,21.76
2018-11-03T01:48:59.435Z,21.76
2018-11-03T01:49:31.042Z,21.76
2018-11-03T01:50:02.651Z,21.76
2018-11-03T01:50:34.288Z,21.77
2018-11-03T01:51:05.935Z,21.77
2018-11-03T01:51:37.522Z,21.77
2018-11-03T01:52:09.122Z,21.77
2018-11-03T01:52:40.702Z,21.77
2018-11-03T01:53:12.293Z,21.77
2018-11-03T01:53:43.896Z,21.77
2018-11-03T01:54:15.497Z,21.77
2018-11-03T01:54:47.111Z,21.77
2018-11-03T01:55:18.724Z,21.77
2018-11-03T01:55:50.359Z,21.76
2018-11-03T01:56:21.966Z,21.77
2018-11-03T01:56:53.576Z,21.76
2018-11-03T01:57:25.177Z,21.77
2018-11-03T01:57:56.785Z,21.78
2018-11-03T01:58:28.394Z,21.77
2018-11-03T01:58:59.989Z,21.78
2018-11-03T01:59:31.592Z,21.77
2018-11-03T02:00:03.192Z,21.77
2018-11-03T02:00:34.791Z,21.77
2018-11-03T02:01:06.448Z,21.77
2018-11-03T02:01:38.058Z,21.77
2018-11-03T02:02:09.682Z,21.77
2018-11-03T02:02:41.279Z,21.76
2018-11-03T02:03:12.883Z,21.76
2018-11-03T02:03:44.477Z,21.76
2018-11-03T02:04:16.088Z,21.76
2018-11-03T02:04:47.674Z,21.77
2018-11-03T02:05:19.288Z,21.78
2018-11-03T02:05:50.925Z,21.79
2018-11-03T02:06:22.539Z,21.80
2018-11-03T02:06:54.150Z,21.80
2018-11-03T02:07:25.738Z,21.81
2018-11-03T02:07:57.343Z,21.62
2018-11-03T02:08:28.971Z,21.81
2018-11-03T02:09:00.576Z,21.80
2018-11-03T02:09:32.182Z,21.80
2018-11-03T02:10:03.785Z,21.81
2018-11-03T02:10:35.406Z,21.82
2018-11-03T02:11:07.028Z,21.81
2018-11-03T02:11:38.610Z,21.84
2018-11-03T02:12:10.210Z,21.85
2018-11-03T02:12:41.790Z,21.87
2018-11-03T02:13:13.408Z,21.90
2018-11-03T02:13:44.999Z,21.92
2018-11-03T02:14:16.595Z,21.94
2018-11-03T02:14:48.188Z,21.94
2018-11-03T02:15:19.784Z,21.94
2018-11-03T02:15:51.510Z,21.95
2018-11-03T02:16:23.106Z,21.95
2018-11-03T02:16:54.699Z,21.97
2018-11-03T02:17:26.292Z,21.99
2018-11-03T02:17:57.898Z,22.01
2018-11-03T02:18:29.492Z,22.03
2018-11-03T02:19:01.119Z,22.03
2018-11-03T02:19:32.716Z,22.04
2018-11-03T02:20:04.326Z,22.05
2018-11-03T02:20:35.916Z,22.06
2018-11-03T02:21:07.550Z,22.08
2018-11-03T02:21:39.162Z,22.14
2018-11-03T02:22:10.766Z,22.15
2018-11-03T02:22:42.377Z,22.13
2018-11-03T02:23:14.186Z,22.10
2018-11-03T02:23:46.058Z,22.07
2018-11-03T02:24:17.681Z,22.02
2018-11-03T02:24:49.275Z,22.00
2018-11-03T02:25:20.869Z,21.98
2018-11-03T02:25:52.478Z,21.96
2018-11-03T02:26:24.139Z,21.99
2018-11-03T02:26:55.754Z,22.00
2018-11-03T02:27:27.352Z,22.01
2018-11-03T02:27:58.940Z,22.03
2018-11-03T02:28:30.542Z,22.04
2018-11-03T02:29:02.136Z,22.04
2018-11-03T02:29:33.750Z,22.08
2018-11-03T02:30:05.340Z,22.10
2018-11-03T02:30:36.949Z,22.11
2018-11-03T02:31:08.558Z,22.11
2018-11-03T02:31:40.152Z,22.10
2018-11-03T02:32:11.741Z,22.12
2018-11-03T02:32:43.336Z,22.13
2018-11-03T02:33:14.945Z,22.13
2018-11-03T02:33:46.559Z,22.13
2018-11-03T02:34:18.186Z,22.13
2018-11-03T02:34:49.788Z,22.13
2018-11-03T02:35:21.384Z,22.14
2018-11-03T02:35:52.985Z,22.14
2018-11-03T02:36:24.636Z,22.13
2018-11-03T02:36:56.226Z,22.12
2018-11-03T02:37:27.829Z,22.11
2018-11-03T02:37:59.414Z,22.11
2018-11-03T02:38:31.014Z,22.11
2018-11-03T02:39:02.642Z,22.10
2018-11-03T02:39:34.250Z,22.09
2018-11-03T02:40:05.877Z,22.09
2018-11-03T02:40:37.486Z,22.10
2018-11-03T02:41:09.145Z,22.11
2018-11-03T02:41:40.768Z,22.11
2018-11-03T02:42:12.370Z,22.11
2018-11-03T02:42:43.977Z,22.10
2018-11-03T02:43:15.593Z,22.09
2018-11-03T02:43:47.207Z,22.09
2018-11-03T02:44:18.850Z,22.09
2018-11-03T02:44:50.459Z,22.08
2018-11-03T02:45:22.078Z,22.09
2018-11-03T02:45:53.670Z,22.09
2018-11-03T02:46:25.296Z,22.09
2018-11-03T02:46:56.900Z,22.08
2018-11-03T02:47:28.516Z,22.08
2018-11-03T02:48:00.098Z,22.08
2018-11-03T02:48:31.696Z,22.09
2018-11-03T02:49:03.337Z,22.09
2018-11-03T02:49:34.927Z,22.09
2018-11-03T02:50:06.538Z,22.09
2018-11-03T02:50:38.130Z,22.08
2018-11-03T02:51:09.737Z,22.08
2018-11-03T02:51:41.370Z,22.08
2018-11-03T02:52:12.958Z,22.07
2018-11-03T02:52:44.538Z,22.06
2018-11-03T02:53:16.149Z,22.05
2018-11-03T02:53:47.743Z,22.04
2018-11-03T02:54:19.371Z,22.02
2018-11-03T02:54:50.972Z,22.02
2018-11-03T02:55:22.595Z,22.02
2018-11-03T02:55:54.210Z,21.79
2018-11-03T02:56:25.858Z,22.00
2018-11-03T02:56:57.438Z,21.99
2018-11-03T02:57:29.032Z,21.98
2018-11-03T02:58:00.623Z,21.97
2018-11-03T02:58:32.230Z,21.95
2018-11-03T02:59:03.810Z,21.95
2018-11-03T02:59:35.386Z,21.93
2018-11-03T03:00:06.972Z,21.92
2018-11-03T03:00:38.581Z,21.90
2018-11-03T03:01:10.194Z,21.88
2018-11-03T03:01:41.815Z,21.87
2018-11-03T03:02:13.417Z,21.85
2018-11-03T03:02:45.009Z,21.82
2018-11-03T03:03:16.612Z,21.80
2018-11-03T03:03:48.222Z,21.79
2018-11-03T03:04:19.945Z,21.77
2018-11-03T03:04:51.534Z,21.75
2018-11-03T03:05:23.147Z,21.74
2018-11-03T03:05:54.745Z,21.73
2018-11-03T03:06:26.383Z,21.72
2018-11-03T03:06:57.986Z,21.71
2018-11-03T03:07:29.584Z,21.69
2018-11-03T03:08:01.195Z,21.69
2018-11-03T03:08:32.801Z,21.68
2018-11-03T03:09:04.427Z,21.69
2018-11-03T03:09:36.023Z,21.68
2018-11-03T03:10:07.616Z,21.67
2018-11-03T03:10:39.215Z,21.68
2018-11-03T03:11:10.828Z,21.68
2018-11-03T03:11:42.447Z,21.67
2018-11-03T03:12:14.054Z,21.66
2018-11-03T03:12:45.666Z,21.65
2018-11-03T03:13:17.301Z,21.65
2018-11-03T03:13:48.903Z,21.65
2018-11-03T03:14:20.514Z,21.64
2018-11-03T03:14:52.115Z,21.64
2018-11-03T03:15:23.728Z,21.63
2018-11-03T03:15:55.339Z,21.62
2018-11-03T03:16:26.945Z,21.61
2018-11-03T03:16:58.630Z,21.61
2018-11-03T03:17:30.232Z,21.60
2018-11-03T03:18:01.819Z,21.59
2018-11-03T03:18:33.412Z,21.58
2018-11-03T03:19:05.019Z,21.58
2018-11-03T03:19:36.616Z,21.57
2018-11-03T03:20:08.243Z,21.56
2018-11-03T03:20:39.873Z,21.56
2018-11-03T03:21:11.484Z,21.55
2018-11-03T03:21:43.122Z,21.54
2018-11-03T03:22:14.702Z,21.54
2018-11-03T03:22:46.307Z,21.53
2018-11-03T03:23:17.890Z,21.53
2018-11-03T03:23:49.501Z,21.52
2018-11-03T03:24:21.124Z,21.52
2018-11-03T03:24:52.706Z,21.52
2018-11-03T03:25:24.334Z,21.52
2018-11-03T03:25:55.942Z,21.52
2018-11-03T03:26:27.548Z,21.52
2018-11-03T03:26:59.137Z,21.52
2018-11-03T03:27:30.728Z,21.50
2018-11-03T03:28:02.317Z,21.50
2018-11-03T03:28:33.894Z,21.51
2018-11-03T03:29:05.555Z,21.50
2018-11-03T03:29:37.162Z,21.50
2018-11-03T03:30:08.740Z,21.51
2018-11-03T03:30:40.337Z,21.52
2018-11-03T03:31:11.942Z,21.51
2018-11-03T03:31:43.557Z,21.52
2018-11-03T03:32:15.148Z,21.52
2018-11-03T03:32:46.743Z,21.53
2018-11-03T03:33:18.359Z,21.52
2018-11-03T03:33:49.961Z,21.54
2018-11-03T03:34:21.572Z,21.54
2018-11-03T03:34:53.182Z,21.56
2018-11-03T03:35:24.819Z,21.57
2018-11-03T03:35:56.428Z,21.58
2018-11-03T03:36:28.046Z,21.60
2018-11-03T03:36:59.659Z,21.61
2018-11-03T03:37:31.270Z,21.63
2018-11-03T03:38:02.931Z,21.66
2018-11-03T03:38:34.507Z,21.67
2018-11-03T03:39:06.113Z,21.68
2018-11-03T03:39:37.704Z,21.70
2018-11-03T03:40:09.318Z,21.72
2018-11-03T03:40:40.934Z,21.74
2018-11-03T03:41:12.542Z,21.74
2018-11-03T03:41:44.139Z,21.75
2018-11-03T03:42:15.756Z,21.76
2018-11-03T03:42:47.352Z,21.78
2018-11-03T03:43:18.962Z,21.79
2018-11-03T03:43:50.556Z,21.82
2018-11-03T03:44:22.174Z,21.82
2018-11-03T03:44:53.780Z,21.84
2018-11-03T03:45:25.400Z,21.85
2018-11-03T03:45:57.001Z,21.86
2018-11-03T03:46:28.596Z,21.87
2018-11-03T03:47:00.219Z,21.89
2018-11-03T03:47:31.818Z,21.90
2018-11-03T03:48:03.417Z,21.91
2018-11-03T03:48:35.031Z,21.92
2018-11-03T03:49:06.628Z,21.94
2018-11-03T03:49:38.224Z,21.96
2018-11-03T03:50:09.846Z,21.97
2018-11-03T03:50:41.498Z,21.97
2018-11-03T03:51:13.110Z,22.00
2018-11-03T03:51:44.711Z,22.00
2018-11-03T03:52:16.349Z,22.01
2018-11-03T03:52:47.957Z,22.02
2018-11-03T03:53:19.542Z,22.01
2018-11-03T03:53:51.136Z,22.03
2018-11-03T03:54:22.732Z,22.03
2018-11-03T03:54:54.331Z,22.04
2018-11-03T03:55:25.949Z,22.05
2018-11-03T03:55:57.557Z,22.04
2018-11-03T03:56:29.157Z,22.06
2018-11-03T03:57:00.780Z,22.07
2018-11-03T03:57:32.368Z,22.08
2018-11-03T03:58:03.970Z,22.09
2018-11-03T03:58:35.599Z,22.11
2018-11-03T03:59:07.189Z,22.12
2018-11-03T03:59:38.807Z,22.13
2018-11-03T04:00:10.415Z,22.12
2018-11-03T04:00:42.128Z,22.13
2018-11-03T04:01:13.738Z,22.12
2018-11-03T04:01:45.356Z,22.12
2018-11-03T04:02:16.988Z,22.13
2018-11-03T04:02:48.593Z,22.13
2018-11-03T04:03:20.201Z,22.13
2018-11-03T04:03:51.800Z,22.12
2018-11-03T04:04:23.432Z,22.14
2018-11-03T04:04:55.031Z,22.14
2018-11-03T04:05:26.652Z,22.15
2018-11-03T04:05:58.266Z,22.14
2018-11-03T04:06:29.876Z,22.13
2018-11-03T04:07:01.468Z,22.12
2018-11-03T04:07:33.100Z,22.11
2018-11-03T04:08:04.707Z,22.10
2018-11-03T04:08:36.317Z,22.09
2018-11-03T04:09:07.925Z,22.09
2018-11-03T04:09:39.506Z,22.09
2018-11-03T04:10:11.118Z,22.08
2018-11-03T04:10:42.716Z,22.07
2018-11-03T04:11:14.315Z,21.96
2018-11-03T04:11:45.926Z,22.05
2018-11-03T04:12:17.562Z,22.05
2018-11-03T04:12:49.176Z,22.06
2018-11-03T04:13:20.765Z,22.06
2018-11-03T04:13:52.369Z,22.05
2018-11-03T04:14:24.006Z,22.04
2018-11-03T04:14:55.617Z,22.04
2018-11-03T04:15:27.245Z,22.03
2018-11-03T04:15:58.839Z,22.02
2018-11-03T04:16:30.435Z,22.00
2018-11-03T04:17:02.042Z,21.99
2018-11-03T04:17:33.720Z,21.98
2018-11-03T04:18:05.317Z,21.97
2018-11-03T04:18:36.935Z,21.95
2018-11-03T04:19:08.532Z,21.94
2018-11-03T04:19:40.123Z,21.95
2018-11-03T04:20:11.725Z,21.96
2018-11-03T04:20:43.328Z,21.96
2018-11-03T04:21:14.915Z,21.96
2018-11-03T04:21:46.516Z,21.96
2018-11-03T04:22:18.118Z,21.96
2018-11-03T04:22:49.752Z,21.95
2018-11-03T04:23:21.362Z,21.94
2018-11-03T04:23:52.956Z,21.94
2018-11-03T04:24:24.588Z,21.93
2018-11-03T04:24:56.180Z,21.92
2018-11-03T04:25:27.780Z,21.90
2018-11-03T04:25:59.420Z,21.89
2018-11-03T04:26:31.046Z,21.88
2018-11-03T04:27:02.663Z,21.87
2018-11-03T04:27:34.268Z,21.85
2018-11-03T04:28:05.891Z,21.84
2018-11-03T04:28:37.503Z,21.83
2018-11-03T04:29:09.089Z,21.81
2018-11-03T04:29:40.680Z,21.79
2018-11-03T04:30:12.290Z,21.79
2018-11-03T04:30:43.899Z,21.78
2018-11-03T04:31:15.551Z,21.77
2018-11-03T04:31:47.173Z,21.76
2018-11-03T04:32:18.786Z,21.53
2018-11-03T04:32:50.403Z,21.74
2018-11-03T04:33:22.094Z,21.74
2018-11-03T04:33:53.696Z,21.73
2018-11-03T04:34:25.333Z,21.73
2018-11-03T04:34:56.938Z,21.71
2018-11-03T04:35:28.535Z,21.70
2018-11-03T04:36:00.132Z,21.69
2018-11-03T04:36:31.720Z,21.69
2018-11-03T04:37:03.330Z,21.68
2018-11-03T04:37:34.939Z,21.66
2018-11-03T04:38:06.541Z,21.67
2018-11-03T04:38:38.176Z,21.66
2018-11-03T04:39:09.777Z,21.65
2018-11-03T04:39:41.361Z,21.64
2018-11-03T04:40:12.974Z,21.62
2018-11-03T04:40:44.600Z,21.63
2018-11-03T04:41:16.213Z,21.60
2018-11-03T04:41:47.828Z,21.61
2018-11-03T04:42:19.427Z,21.61
2018-11-03T04:42:51.067Z,21.60
2018-11-03T04:43:22.680Z,21.59
2018-11-03T04:43:54.270Z,21.59
2018-11-03T04:44:25.884Z,21.58
2018-11-03T04:44:57.540Z,21.57
2018-11-03T04:45:29.221Z,21.55
2018-11-03T04:46:00.752Z,21.55
2018-11-03T04:46:32.344Z,21.55
2018-11-03T04:47:03.938Z,21.54
2018-11-03T04:47:35.522Z,21.54
2018-11-03T04:48:07.101Z,21.55
2018-11-03T04:48:38.695Z,21.57
2018-11-03T04:49:10.297Z,21.57
2018-11-03T04:49:41.894Z,21.56
2018-11-03T04:50:13.543Z,21.55
2018-11-03T04:50:45.194Z,21.56
2018-11-03T04:51:16.802Z,21.55
2018-11-03T04:51:48.441Z,21.55
2018-11-03T04:52:20.057Z,21.54
2018-11-03T04:52:51.672Z,21.55
2018-11-03T04:53:23.278Z,21.57
2018-11-03T04:53:54.868Z,21.56
2018-11-03T04:54:26.489Z,21.56
2018-11-03T04:54:58.147Z,21.55
2018-11-03T04:55:29.745Z,21.54
2018-11-03T04:56:01.358Z,21.53
2018-11-03T04:56:32.951Z,21.53
2018-11-03T04:57:04.547Z,21.53
2018-11-03T04:57:36.162Z,21.50
2018-11-03T04:58:07.755Z,21.52
2018-11-03T04:58:39.351Z,21.52
2018-11-03T04:59:10.992Z,21.53
2018-11-03T04:59:42.569Z,21.52
2018-11-03T05:00:14.179Z,21.50
2018-11-03T05:00:45.761Z,21.51
2018-11-03T05:01:17.361Z,21.50
2018-11-03T05:01:48.938Z,21.49
2018-11-03T05:02:20.550Z,21.50
2018-11-03T05:02:52.182Z,21.49
2018-11-03T05:03:23.780Z,21.49
2018-11-03T05:03:55.437Z,21.49
2018-11-03T05:04:27.056Z,21.49
2018-11-03T05:04:58.652Z,21.47
2018-11-03T05:05:30.248Z,21.49
2018-11-03T05:06:01.858Z,21.48
2018-11-03T05:06:33.460Z,21.48
2018-11-03T05:07:05.069Z,21.48
2018-11-03T05:07:36.651Z,21.47
2018-11-03T05:08:08.252Z,21.48
2018-11-03T05:08:39.845Z,21.49
2018-11-03T05:09:11.498Z,21.50
2018-11-03T05:09:43.133Z,21.51
2018-11-03T05:10:14.762Z,21.52
2018-11-03T05:10:46.368Z,21.54
2018-11-03T05:11:17.972Z,21.56
2018-11-03T05:11:49.562Z,21.59
2018-11-03T05:12:21.195Z,21.61
2018-11-03T05:12:52.786Z,21.62
2018-11-03T05:13:24.401Z,21.63
2018-11-03T05:13:56.004Z,21.65
2018-11-03T05:14:27.624Z,21.66
2018-11-03T05:14:59.235Z,21.68
2018-11-03T05:15:30.888Z,21.68
2018-11-03T05:16:02.479Z,21.70
2018-11-03T05:16:34.062Z,21.71
2018-11-03T05:17:05.662Z,21.72
2018-11-03T05:17:37.256Z,21.73
2018-11-03T05:18:08.898Z,21.75
2018-11-03T05:18:40.636Z,21.75
2018-11-03T05:19:12.405Z,21.78
2018-11-03T05:19:44.044Z,21.79
2018-11-03T05:20:15.640Z,21.87
2018-11-03T05:20:47.233Z,21.90
2018-11-03T05:21:18.852Z,21.93
2018-11-03T05:21:50.452Z,21.96
2018-11-03T05:22:22.084Z,21.96
2018-11-03T05:22:53.672Z,21.99
2018-11-03T05:23:25.257Z,22.00
2018-11-03T05:23:56.866Z,22.02
2018-11-03T05:24:28.543Z,22.03
2018-11-03T05:25:00.153Z,22.07
2018-11-03T05:25:31.780Z,22.11
2018-11-03T05:26:03.380Z,22.14
2018-11-03T05:26:34.972Z,22.17
2018-11-03T05:27:06.575Z,22.18
2018-11-03T05:27:38.200Z,22.20
2018-11-03T05:28:09.810Z,22.22
2018-11-03T05:28:41.406Z,22.23
2018-11-03T05:29:13.054Z,22.24
2018-11-03T05:29:44.664Z,22.27
2018-11-03T05:30:16.260Z,22.26
2018-11-03T05:30:47.839Z,22.29
2018-11-03T05:31:19.468Z,22.30
2018-11-03T05:31:51.073Z,22.30
2018-11-03T05:32:22.696Z,22.31
2018-11-03T05:32:54.314Z,22.32
2018-11-03T05:33:25.917Z,22.31
2018-11-03T05:33:57.526Z,22.31
2018-11-03T05:34:29.212Z,22.31
2018-11-03T05:35:01.523Z,22.32
2018-11-03T05:35:33.153Z,22.32
2018-11-03T05:36:04.757Z,22.33
2018-11-03T05:36:36.371Z,22.33
2018-11-03T05:37:07.960Z,22.33
2018-11-03T05:37:39.552Z,22.33
2018-11-03T05:38:11.149Z,22.32
2018-11-03T05:38:42.762Z,22.32
2018-11-03T05:39:14.374Z,22.31
2018-11-03T05:39:45.979Z,22.30
2018-11-03T05:40:17.586Z,22.30
2018-11-03T05:40:49.194Z,22.29
2018-11-03T05:41:20.797Z,22.29
2018-11-03T05:41:52.410Z,22.27
2018-11-03T05:42:24.065Z,22.28
2018-11-03T05:42:55.652Z,22.26
2018-11-03T05:43:27.270Z,22.25
2018-11-03T05:43:58.872Z,22.22
2018-11-03T05:44:30.468Z,22.21
2018-11-03T05:45:02.069Z,22.18
2018-11-03T05:45:33.654Z,22.17
2018-11-03T05:46:05.281Z,22.15
2018-11-03T05:46:37.005Z,22.13
2018-11-03T05:47:08.569Z,22.12
2018-11-03T05:47:40.169Z,22.11
2018-11-03T05:48:11.767Z,22.10
2018-11-03T05:48:43.375Z,22.08
2018-11-03T05:49:14.985Z,22.06
2018-11-03T05:49:46.585Z,22.05
2018-11-03T05:50:18.278Z,22.04
2018-11-03T05:50:49.878Z,22.03
2018-11-03T05:51:21.552Z,22.02
2018-11-03T05:51:53.148Z,22.01
2018-11-03T05:52:24.726Z,21.99
2018-11-03T05:52:56.353Z,21.98
2018-11-03T05:53:27.956Z,21.98
2018-11-03T05:53:59.569Z,21.96
2018-11-03T05:54:31.163Z,21.94
2018-11-03T05:55:02.782Z,21.94
2018-11-03T05:55:34.362Z,21.93
2018-11-03T05:56:05.961Z,21.92
2018-11-03T05:56:37.627Z,21.92
2018-11-03T05:57:09.238Z,21.94
2018-11-03T05:57:40.871Z,21.94
2018-11-03T05:58:12.509Z,21.94
2018-11-03T05:58:44.170Z,21.95
2018-11-03T05:59:15.793Z,21.94
2018-11-03T05:59:47.393Z,21.93
2018-11-03T06:00:19.007Z,21.93
2018-11-03T06:00:50.600Z,21.91
2018-11-03T06:01:22.203Z,21.90
2018-11-03T06:01:53.818Z,21.89
2018-11-03T06:02:25.426Z,21.86
2018-11-03T06:02:57.072Z,21.85
2018-11-03T06:03:28.663Z,21.82
2018-11-03T06:04:00.259Z,21.84
2018-11-03T06:04:31.856Z,21.86
2018-11-03T06:05:03.460Z,21.85
2018-11-03T06:05:35.068Z,21.84
2018-11-03T06:06:06.659Z,21.84
2018-11-03T06:06:38.248Z,21.84
2018-11-03T06:07:09.854Z,21.83
2018-11-03T06:07:41.489Z,21.83
2018-11-03T06:08:13.084Z,21.81
2018-11-03T06:08:44.711Z,21.81
2018-11-03T06:09:16.308Z,21.80
2018-11-03T06:09:47.903Z,21.79
2018-11-03T06:10:19.510Z,21.78
2018-11-03T06:10:51.103Z,21.78
2018-11-03T06:11:22.739Z,21.78
2018-11-03T06:11:54.337Z,21.79
2018-11-03T06:12:25.928Z,21.78
2018-11-03T06:12:57.531Z,21.77
2018-11-03T06:13:29.123Z,21.76
2018-11-03T06:14:00.734Z,21.75
2018-11-03T06:14:32.340Z,21.75
2018-11-03T06:15:03.962Z,21.74
2018-11-03T06:15:35.636Z,21.74
2018-11-03T06:16:07.222Z,21.72
2018-11-03T06:16:38.896Z,21.70
2018-11-03T06:17:10.484Z,21.69
2018-11-03T06:17:42.104Z,21.68
2018-11-03T06:18:13.714Z,21.66
2018-11-03T06:18:45.366Z,21.65
2018-11-03T06:19:16.973Z,21.63
2018-11-03T06:19:48.549Z,21.62
2018-11-03T06:20:20.144Z,21.62
2018-11-03T06:20:51.723Z,21.61
2018-11-03T06:21:23.334Z,21.61
2018-11-03T06:21:54.941Z,21.61
2018-11-03T06:22:26.624Z,21.61
2018-11-03T06:22:58.257Z,21.60
2018-11-03T06:23:29.864Z,21.59
2018-11-03T06:24:01.486Z,21.58
2018-11-03T06:24:33.066Z,21.58
2018-11-03T06:25:04.685Z,21.56
2018-11-03T06:25:36.303Z,21.55
2018-11-03T06:26:07.910Z,21.55
2018-11-03T06:26:39.507Z,21.55
2018-11-03T06:27:11.103Z,21.58
2018-11-03T06:27:42.730Z,21.58
2018-11-03T06:28:14.409Z,21.39
2018-11-03T06:28:45.946Z,21.60
2018-11-03T06:29:17.635Z,21.58
2018-11-03T06:29:49.228Z,21.60
2018-11-03T06:30:20.820Z,21.61
2018-11-03T06:30:52.415Z,21.40
2018-11-03T06:31:24.018Z,21.59
2018-11-03T06:31:55.634Z,21.59
2018-11-03T06:32:27.242Z,21.59
2018-11-03T06:32:58.861Z,21.59
2018-11-03T06:33:30.463Z,21.59
2018-11-03T06:34:02.099Z,21.59
2018-11-03T06:34:33.706Z,21.58
2018-11-03T06:35:05.321Z,21.58
2018-11-03T06:35:36.929Z,21.57
2018-11-03T06:36:08.520Z,21.57
2018-11-03T06:36:40.110Z,21.55
2018-11-03T06:37:11.737Z,21.55
2018-11-03T06:37:43.355Z,21.53
2018-11-03T06:38:14.955Z,21.53
2018-11-03T06:38:46.679Z,21.54
2018-11-03T06:39:18.271Z,21.55
2018-11-03T06:39:49.894Z,21.55
2018-11-03T06:40:21.490Z,21.55
2018-11-03T06:40:53.103Z,21.54
2018-11-03T06:41:24.714Z,21.52
2018-11-03T06:41:56.326Z,21.51
2018-11-03T06:42:27.941Z,21.52
2018-11-03T06:42:59.510Z,21.53
2018-11-03T06:43:31.117Z,21.52
2018-11-03T06:44:02.747Z,21.51
2018-11-03T06:44:34.362Z,21.51
2018-11-03T06:45:05.959Z,21.51
2018-11-03T06:45:37.559Z,21.51
2018-11-03T06:46:09.167Z,21.51
2018-11-03T06:46:40.859Z,21.51
2018-11-03T06:47:12.434Z,21.51